createdAt,value
2022-07-26T00:00:12.488Z,49.85
2022-07-26T00:02:39.402Z,49.27
2022-07-26T00:05:14.514Z,49.21
2022-07-26T00:07:41.522Z,49.10
2022-07-26T00:10:08.404Z,49.01
2022-07-26T00:12:35.261Z,48.98
2022-07-26T00:15:02.091Z,48.60
2022-07-26T00:17:28.788Z,48.67
2022-07-26T00:19:55.354Z,48.53
2022-07-26T00:22:39.359Z,48.55
2022-07-26T00:25:08.120Z,48.22
2022-07-26T00:27:38.431Z,47.77
2022-07-26T00:30:07.518Z,47.95
2022-07-26T00:32:34.891Z,47.79
2022-07-26T00:35:01.611Z,47.72
2022-07-26T00:37:28.248Z,47.93
2022-07-26T00:39:54.872Z,48.27
2022-07-26T00:42:21.598Z,48.47
2022-07-26T00:44:49.004Z,48.82
2022-07-26T00:47:16.390Z,48.52
2022-07-26T00:49:43.201Z,48.79
2022-07-26T00:52:11.071Z,48.65
2022-07-26T00:54:39.173Z,48.76
2022-07-26T00:57:06.125Z,48.64
2022-07-26T00:59:32.989Z,48.36
2022-07-26T01:01:59.907Z,48.45
2022-07-26T01:04:27.356Z,48.24
2022-07-26T01:06:54.475Z,48.55
2022-07-26T01:09:21.306Z,48.80
2022-07-26T01:11:48.097Z,49.04
2022-07-26T01:14:16.412Z,48.51
2022-07-26T01:16:44.045Z,48.19
2022-07-26T01:19:10.749Z,48.29
2022-07-26T01:21:37.424Z,47.75
2022-07-26T01:24:04.514Z,47.63
2022-07-26T01:26:31.317Z,47.38
2022-07-26T01:28:57.867Z,47.47
2022-07-26T01:31:24.622Z,47.70
2022-07-26T01:33:51.413Z,47.44
2022-07-26T01:36:18.949Z,47.54
2022-07-26T01:38:45.652Z,47.36
2022-07-26T01:41:12.259Z,47.62
2022-07-26T01:43:39.223Z,47.96
2022-07-26T01:46:09.771Z,47.68
2022-07-26T01:48:37.157Z,47.85
2022-07-26T01:51:03.969Z,48.05
2022-07-26T01:53:30.667Z,47.80
2022-07-26T01:55:57.530Z,48.43
2022-07-26T01:58:24.726Z,48.16
2022-07-26T02:00:51.536Z,48.13
2022-07-26T02:03:18.185Z,48.19
2022-07-26T02:05:44.787Z,48.19
2022-07-26T02:08:11.638Z,48.64
2022-07-26T02:10:58.038Z,48.18
2022-07-26T02:13:25.126Z,48.56
2022-07-26T02:15:51.824Z,48.39
2022-07-26T02:18:18.439Z,48.55
2022-07-26T02:20:45.016Z,48.64
2022-07-26T02:23:12.168Z,48.67
2022-07-26T02:25:38.857Z,48.40
2022-07-26T02:28:05.914Z,48.91
2022-07-26T02:30:32.460Z,49.19
2022-07-26T02:33:00.368Z,49.33
2022-07-26T02:35:27.231Z,49.20
2022-07-26T02:37:53.854Z,49.01
2022-07-26T02:40:20.475Z,49.13
2022-07-26T02:42:47.127Z,49.75
2022-07-26T02:45:13.825Z,49.67
2022-07-26T02:47:50.569Z,49.80
2022-07-26T02:50:18.714Z,49.37
2022-07-26T02:52:47.990Z,49.62
2022-07-26T02:55:16.607Z,50.23
2022-07-26T02:57:45.513Z,50.37
2022-07-26T03:00:16.769Z,49.93
2022-07-26T03:02:43.543Z,50.21
2022-07-26T03:05:10.613Z,50.57
2022-07-26T03:07:37.371Z,49.85
2022-07-26T03:10:05.636Z,50.23
2022-07-26T03:12:32.265Z,50.10
2022-07-26T03:14:58.839Z,49.98
2022-07-26T03:17:25.564Z,50.19
2022-07-26T03:19:52.309Z,51.40
2022-07-26T03:22:19.068Z,50.88
2022-07-26T03:24:45.615Z,51.50
2022-07-26T03:27:12.214Z,50.99
2022-07-26T03:29:38.842Z,51.34
2022-07-26T03:32:05.773Z,51.08
2022-07-26T03:34:32.667Z,50.88
2022-07-26T03:36:59.372Z,51.08
2022-07-26T03:39:26.169Z,51.51
2022-07-26T03:41:52.877Z,51.48
2022-07-26T03:44:19.660Z,51.51
2022-07-26T03:46:46.507Z,51.91
2022-07-26T03:49:16.588Z,51.91
2022-07-26T03:51:44.033Z,52.24
2022-07-26T03:54:11.096Z,52.14
2022-07-26T03:56:38.045Z,52.28
2022-07-26T03:59:06.921Z,52.54
2022-07-26T04:01:34.925Z,52.32
2022-07-26T04:04:02.254Z,52.88
2022-07-26T04:06:29.093Z,52.49
2022-07-26T04:08:55.705Z,52.59
2022-07-26T04:11:22.245Z,53.04
2022-07-26T04:13:53.188Z,53.01
2022-07-26T04:16:19.847Z,52.96
2022-07-26T04:18:46.573Z,53.71
2022-07-26T04:21:13.143Z,53.58
2022-07-26T04:23:39.716Z,53.70
2022-07-26T04:26:06.629Z,53.54
2022-07-26T04:28:33.653Z,54.13
2022-07-26T04:31:00.789Z,53.77
2022-07-26T04:33:28.030Z,54.43
2022-07-26T04:35:54.868Z,54.10
2022-07-26T04:38:21.627Z,54.32
2022-07-26T04:40:49.945Z,53.80
2022-07-26T04:43:16.972Z,53.68
2022-07-26T04:45:47.255Z,53.76
2022-07-26T04:48:14.644Z,54.10
2022-07-26T04:50:41.723Z,53.88
2022-07-26T04:53:10.759Z,53.93
2022-07-26T04:55:38.046Z,54.06
2022-07-26T04:58:04.882Z,53.98
2022-07-26T05:00:31.604Z,53.66
2022-07-26T05:02:59.907Z,53.87
2022-07-26T05:05:29.949Z,53.64
2022-07-26T05:07:59.173Z,53.53
2022-07-26T05:10:32.012Z,52.92
2022-07-26T05:12:58.751Z,53.04
2022-07-26T05:15:25.696Z,52.70
2022-07-26T05:18:06.839Z,52.60
2022-07-26T05:20:34.840Z,52.47
2022-07-26T05:23:01.532Z,52.25
2022-07-26T05:25:28.576Z,52.64
2022-07-26T05:27:55.228Z,51.82
2022-07-26T05:30:22.065Z,51.19
2022-07-26T05:32:48.641Z,51.57
2022-07-26T05:35:15.634Z,51.39
2022-07-26T05:37:43.256Z,51.31
2022-07-26T05:40:10.984Z,50.59
2022-07-26T05:42:37.868Z,49.95
2022-07-26T05:45:05.689Z,49.55
2022-07-26T05:47:32.554Z,49.65
2022-07-26T05:49:59.211Z,49.16
2022-07-26T05:52:25.826Z,49.33
2022-07-26T05:54:52.470Z,49.33
2022-07-26T05:57:19.016Z,48.76
2022-07-26T05:59:45.612Z,49.28
2022-07-26T06:02:12.268Z,48.54
2022-07-26T06:04:39.170Z,48.62
2022-07-26T06:07:05.797Z,48.58
2022-07-26T06:09:32.505Z,47.78
2022-07-26T06:11:59.510Z,46.69
2022-07-26T06:14:26.147Z,46.77
2022-07-26T06:16:52.808Z,46.24
2022-07-26T06:19:19.426Z,45.67
2022-07-26T06:21:46.064Z,45.88
2022-07-26T06:24:13.166Z,46.96
2022-07-26T06:26:40.123Z,47.52
2022-07-26T06:29:06.762Z,47.49
2022-07-26T06:31:33.797Z,46.64
2022-07-26T06:34:00.436Z,45.92
2022-07-26T06:36:30.475Z,45.06
2022-07-26T06:38:58.096Z,44.54
2022-07-26T06:41:24.938Z,44.72
2022-07-26T06:43:51.767Z,44.78
2022-07-26T06:46:19.484Z,45.14
2022-07-26T06:48:47.629Z,45.60
2022-07-26T06:51:20.011Z,45.88
2022-07-26T06:53:46.670Z,45.16
2022-07-26T06:56:14.872Z,44.28
2022-07-26T06:58:42.374Z,42.88
2022-07-26T07:01:09.267Z,42.34
2022-07-26T07:03:36.162Z,41.05
2022-07-26T07:06:03.333Z,40.48
2022-07-26T07:08:29.887Z,39.38
2022-07-26T07:10:56.725Z,38.87
2022-07-26T07:13:23.304Z,37.76
2022-07-26T07:15:49.914Z,37.38
2022-07-26T07:18:16.500Z,36.36
2022-07-26T07:20:43.100Z,36.67
2022-07-26T07:23:09.737Z,37.46
2022-07-26T07:25:36.374Z,37.54
2022-07-26T07:28:03.252Z,37.18
2022-07-26T07:30:29.913Z,37.47
2022-07-26T07:32:56.753Z,36.76
2022-07-26T07:35:23.662Z,37.12
2022-07-26T07:37:53.418Z,37.75
2022-07-26T07:40:21.582Z,38.83
2022-07-26T07:42:48.228Z,38.71
2022-07-26T07:45:14.841Z,39.04
2022-07-26T07:47:41.604Z,38.79
2022-07-26T07:50:08.933Z,39.46
2022-07-26T07:52:35.549Z,40.87
2022-07-26T07:55:37.092Z,40.99
2022-07-26T07:57:49.889Z,39.98
2022-07-26T08:00:19.114Z,40.17
2022-07-26T08:02:46.912Z,39.86
2022-07-26T08:05:15.406Z,40.08
2022-07-26T08:07:42.519Z,39.34
2022-07-26T08:10:10.272Z,38.84
2022-07-26T08:12:37.364Z,37.74
2022-07-26T08:15:07.356Z,36.66
2022-07-26T08:17:38.089Z,36.33
2022-07-26T08:20:08.949Z,35.18
2022-07-26T08:22:41.813Z,34.32
2022-07-26T08:25:09.293Z,33.29
2022-07-26T08:27:40.809Z,34.59
2022-07-26T08:30:08.596Z,34.99
2022-07-26T08:32:35.708Z,33.99
2022-07-26T08:35:19.632Z,34.32
2022-07-26T08:37:46.980Z,34.91
2022-07-26T08:40:14.125Z,36.38
2022-07-26T08:42:40.795Z,36.78
2022-07-26T08:45:07.897Z,35.22
2022-07-26T08:47:37.697Z,34.12
2022-07-26T08:50:07.618Z,33.67
2022-07-26T08:52:34.773Z,32.00
2022-07-26T08:55:01.355Z,30.93
2022-07-26T08:57:27.915Z,29.47
2022-07-26T09:00:21.331Z,29.96
2022-07-26T09:02:48.690Z,30.49
2022-07-26T09:05:18.020Z,31.49
2022-07-26T09:07:45.259Z,34.86
2022-07-26T09:10:16.119Z,36.57
2022-07-26T09:12:44.078Z,36.88
2022-07-26T09:15:28.536Z,35.14
2022-07-26T09:17:57.523Z,32.81
2022-07-26T09:20:29.191Z,31.30
2022-07-26T09:23:03.813Z,28.94
2022-07-26T09:25:36.817Z,28.89
2022-07-26T09:28:05.008Z,29.96
2022-07-26T09:30:32.429Z,29.54
2022-07-26T09:33:03.453Z,29.06
2022-07-26T09:35:52.270Z,29.64
2022-07-26T09:38:19.796Z,29.86
2022-07-26T09:40:50.726Z,30.78
2022-07-26T09:43:23.986Z,31.75
2022-07-26T09:46:07.068Z,29.46
2022-07-26T09:49:07.027Z,27.39
2022-07-26T09:51:42.617Z,27.14
2022-07-26T09:54:18.366Z,27.15
2022-07-26T09:56:52.380Z,25.27
2022-07-26T09:59:21.931Z,23.24
2022-07-26T10:01:51.779Z,21.78
2022-07-26T10:04:19.655Z,22.83
2022-07-26T10:06:46.508Z,22.62
2022-07-26T10:09:14.705Z,23.53
2022-07-26T10:12:00.614Z,23.71
2022-07-26T10:14:33.100Z,24.65
2022-07-26T10:17:00.861Z,26.84
2022-07-26T10:19:41.796Z,28.56
2022-07-26T10:22:30.590Z,27.66
2022-07-26T10:25:18.321Z,24.93
2022-07-26T10:27:52.217Z,25.29
2022-07-26T10:30:18.974Z,25.01
2022-07-26T10:32:51.698Z,26.98
2022-07-26T10:35:44.615Z,27.37
2022-07-26T10:38:22.223Z,28.12
2022-07-26T10:40:56.270Z,27.67
2022-07-26T10:43:40.263Z,28.13
2022-07-26T10:46:17.891Z,27.72
2022-07-26T10:49:03.524Z,27.87
2022-07-26T10:51:36.463Z,28.39
2022-07-26T10:54:05.568Z,28.89
2022-07-26T10:56:33.628Z,29.00
2022-07-26T10:59:01.207Z,26.14
2022-07-26T11:01:42.704Z,24.34
2022-07-26T11:04:19.937Z,24.91
2022-07-26T11:06:47.020Z,25.27
2022-07-26T11:09:13.729Z,26.07
2022-07-26T11:11:46.606Z,27.13
2022-07-26T11:14:16.393Z,28.40
2022-07-26T11:16:45.658Z,29.39
2022-07-26T11:19:16.566Z,30.30
2022-07-26T11:21:54.141Z,31.07
2022-07-26T11:24:22.032Z,31.92
2022-07-26T11:26:48.741Z,31.82
2022-07-26T11:29:16.974Z,32.16
2022-07-26T11:31:49.570Z,31.84
2022-07-26T11:34:23.456Z,30.28
2022-07-26T11:36:52.082Z,29.23
2022-07-26T11:39:48.281Z,29.44
2022-07-26T11:42:16.905Z,29.05
2022-07-26T11:44:46.094Z,29.74
2022-07-26T11:47:14.752Z,30.66
2022-07-26T11:50:00.263Z,29.13
2022-07-26T11:52:31.897Z,28.43
2022-07-26T11:54:59.189Z,28.22
2022-07-26T11:57:32.726Z,28.67
2022-07-26T12:00:00.655Z,29.11
2022-07-26T12:02:38.167Z,29.66
2022-07-26T12:05:20.030Z,29.84
2022-07-26T12:08:13.244Z,30.60
2022-07-26T12:10:39.869Z,30.43
2022-07-26T12:13:11.987Z,31.44
2022-07-26T12:15:46.661Z,31.89
2022-07-26T12:18:31.149Z,31.83
2022-07-26T12:21:08.901Z,32.87
2022-07-26T12:23:44.097Z,32.97
2022-07-26T12:26:20.895Z,33.31
2022-07-26T12:28:47.474Z,33.51
2022-07-26T12:31:32.073Z,33.24
2022-07-26T12:33:59.084Z,33.42
2022-07-26T12:36:28.450Z,33.52
2022-07-26T12:39:00.324Z,33.57
2022-07-26T12:41:34.996Z,34.13
2022-07-26T12:44:01.762Z,34.49
2022-07-26T12:46:32.276Z,34.66
2022-07-26T12:49:00.635Z,34.87
2022-07-26T12:51:27.669Z,34.99
2022-07-26T12:53:54.509Z,34.47
2022-07-26T12:56:21.206Z,34.03
2022-07-26T12:58:47.722Z,34.71
2022-07-26T13:01:14.438Z,35.02
2022-07-26T13:03:41.164Z,35.33
2022-07-26T13:06:07.941Z,35.42
2022-07-26T13:08:34.523Z,35.43
2022-07-26T13:11:01.258Z,34.58
2022-07-26T13:13:27.894Z,34.24
2022-07-26T13:15:54.454Z,33.84
2022-07-26T13:18:21.126Z,33.01
2022-07-26T13:20:47.724Z,32.69
2022-07-26T13:23:21.365Z,31.97
2022-07-26T13:25:49.136Z,32.10
2022-07-26T13:28:17.170Z,31.58
2022-07-26T13:30:45.034Z,32.08
2022-07-26T13:33:12.269Z,31.88
2022-07-26T13:35:41.113Z,32.13
2022-07-26T13:38:09.041Z,32.64
2022-07-26T13:40:36.114Z,32.09
2022-07-26T13:43:03.017Z,32.41
2022-07-26T13:45:29.953Z,32.71
2022-07-26T13:47:59.873Z,32.54
2022-07-26T13:50:28.029Z,32.57
2022-07-26T13:52:56.231Z,31.90
2022-07-26T13:55:23.033Z,31.30
2022-07-26T13:57:56.582Z,31.28
2022-07-26T14:00:29.619Z,31.21
2022-07-26T14:03:00.399Z,31.32
2022-07-26T14:05:28.021Z,31.53
2022-07-26T14:07:55.040Z,30.88
2022-07-26T14:10:23.137Z,31.96
2022-07-26T14:12:50.369Z,31.64
2022-07-26T14:15:22.235Z,31.49
2022-07-26T14:17:50.247Z,31.71
2022-07-26T14:20:20.030Z,30.99
2022-07-26T14:22:47.304Z,31.43
2022-07-26T14:25:14.493Z,30.54
2022-07-26T14:27:41.072Z,30.50
2022-07-26T14:30:07.981Z,30.29
2022-07-26T14:32:34.613Z,29.78
2022-07-26T14:35:01.202Z,30.03
2022-07-26T14:37:44.121Z,29.83
2022-07-26T14:40:16.613Z,30.13
2022-07-26T14:42:44.520Z,29.71
2022-07-26T14:45:11.862Z,29.75
2022-07-26T14:47:38.664Z,29.31
2022-07-26T14:50:08.002Z,29.69
2022-07-26T14:52:40.033Z,29.17
2022-07-26T14:55:07.112Z,29.64
2022-07-26T14:57:33.919Z,29.78
2022-07-26T15:00:07.802Z,29.38
2022-07-26T15:02:34.486Z,29.63
2022-07-26T15:05:01.720Z,30.99
2022-07-26T15:07:28.282Z,29.27
2022-07-26T15:09:55.028Z,31.75
2022-07-26T15:12:21.782Z,30.82
2022-07-26T15:14:48.298Z,29.77
2022-07-26T15:17:15.026Z,29.77
2022-07-26T15:19:41.694Z,29.56
2022-07-26T15:22:08.589Z,28.90
2022-07-26T15:24:39.808Z,28.78
2022-07-26T15:27:07.030Z,30.27
2022-07-26T15:29:33.702Z,29.00
2022-07-26T15:32:00.336Z,29.38
2022-07-26T15:34:26.978Z,29.24
2022-07-26T15:36:53.667Z,29.47
2022-07-26T15:39:20.625Z,29.32
2022-07-26T15:41:48.281Z,29.29
2022-07-26T15:44:19.383Z,29.69
2022-07-26T15:46:49.152Z,29.71
2022-07-26T15:49:17.221Z,29.66
2022-07-26T15:51:44.403Z,29.11
2022-07-26T15:54:13.515Z,29.13
2022-07-26T15:56:41.044Z,29.44
2022-07-26T15:59:08.292Z,29.01
2022-07-26T16:01:36.283Z,28.40
2022-07-26T16:04:05.006Z,29.34
2022-07-26T16:06:35.234Z,29.08
2022-07-26T16:09:19.386Z,30.23
2022-07-26T16:11:47.792Z,29.88
2022-07-26T16:14:15.394Z,29.58
2022-07-26T16:16:42.240Z,30.45
2022-07-26T16:19:09.744Z,30.26
2022-07-26T16:21:37.419Z,30.89
2022-07-26T16:24:07.174Z,29.48
2022-07-26T16:26:35.539Z,30.15
2022-07-26T16:29:02.719Z,29.59
2022-07-26T16:31:29.584Z,30.95
2022-07-26T16:33:56.282Z,29.88
2022-07-26T16:36:23.124Z,30.06
2022-07-26T16:38:49.743Z,31.17
2022-07-26T16:41:16.386Z,30.14
2022-07-26T16:43:43.008Z,30.06
2022-07-26T16:46:09.639Z,31.36
2022-07-26T16:48:36.290Z,29.98
2022-07-26T16:51:03.088Z,30.71
2022-07-26T16:53:29.670Z,31.08
2022-07-26T16:55:56.231Z,30.47
2022-07-26T16:58:22.857Z,31.40
2022-07-26T17:00:49.903Z,30.39
2022-07-26T17:03:16.927Z,30.54
2022-07-26T17:05:45.835Z,30.67
2022-07-26T17:08:12.516Z,30.54
2022-07-26T17:10:39.182Z,30.74
2022-07-26T17:13:05.883Z,31.56
2022-07-26T17:15:32.926Z,31.41
2022-07-26T17:17:59.538Z,30.50
2022-07-26T17:20:26.510Z,30.76
2022-07-26T17:22:53.614Z,30.82
2022-07-26T17:25:20.312Z,30.67
2022-07-26T17:27:46.907Z,30.53
2022-07-26T17:30:14.024Z,30.44
2022-07-26T17:32:40.748Z,30.48
2022-07-26T17:35:08.175Z,30.00
2022-07-26T17:37:35.091Z,29.82
2022-07-26T17:40:04.015Z,29.75
2022-07-26T17:42:30.653Z,29.78
2022-07-26T17:44:57.478Z,29.81
2022-07-26T17:47:29.708Z,29.75
2022-07-26T17:50:14.071Z,30.10
2022-07-26T17:52:46.575Z,30.72
2022-07-26T17:55:13.143Z,30.58
2022-07-26T17:57:39.952Z,30.75
2022-07-26T18:00:07.188Z,30.96
2022-07-26T18:02:33.763Z,31.13
2022-07-26T18:05:00.434Z,31.09
2022-07-26T18:07:27.174Z,31.12
2022-07-26T18:09:53.760Z,31.00
2022-07-26T18:12:20.347Z,31.57
2022-07-26T18:14:46.947Z,31.29
2022-07-26T18:17:13.620Z,30.95
2022-07-26T18:19:40.254Z,30.99
2022-07-26T18:22:06.825Z,30.83
2022-07-26T18:24:33.377Z,31.35
2022-07-26T18:26:59.913Z,33.11
2022-07-26T18:29:26.521Z,32.90
2022-07-26T18:31:53.131Z,33.43
2022-07-26T18:34:19.747Z,33.70
2022-07-26T18:36:46.302Z,34.26
2022-07-26T18:39:13.538Z,33.98
2022-07-26T18:41:40.259Z,34.08
2022-07-26T18:44:06.807Z,34.69
2022-07-26T18:46:33.677Z,34.38
2022-07-26T18:49:00.587Z,35.16
2022-07-26T18:51:32.093Z,34.92
2022-07-26T18:53:58.772Z,35.20
2022-07-26T18:56:25.318Z,35.34
2022-07-26T18:58:51.918Z,35.20
2022-07-26T19:01:18.640Z,35.43
2022-07-26T19:03:45.508Z,35.56
2022-07-26T19:06:13.043Z,35.60
2022-07-26T19:08:39.566Z,35.73
2022-07-26T19:11:06.313Z,36.16
2022-07-26T19:13:32.913Z,36.34
2022-07-26T19:15:59.551Z,36.22
2022-07-26T19:18:26.179Z,36.57
2022-07-26T19:20:52.743Z,36.02
2022-07-26T19:23:19.344Z,36.41
2022-07-26T19:25:47.119Z,36.57
2022-07-26T19:28:13.870Z,36.60
2022-07-26T19:30:40.452Z,36.86
2022-07-26T19:33:07.401Z,36.82
2022-07-26T19:35:33.961Z,36.99
2022-07-26T19:38:00.583Z,37.33
2022-07-26T19:40:27.392Z,37.25
2022-07-26T19:42:54.075Z,37.10
2022-07-26T19:45:20.723Z,37.68
2022-07-26T19:47:48.036Z,37.72
2022-07-26T19:50:14.737Z,37.65
2022-07-26T19:52:41.385Z,37.61
2022-07-26T19:55:08.928Z,38.30
2022-07-26T19:57:35.620Z,38.40
2022-07-26T20:00:07.258Z,38.54
2022-07-26T20:02:41.065Z,38.55
2022-07-26T20:05:12.358Z,38.73
2022-07-26T20:07:39.168Z,38.98
2022-07-26T20:10:06.491Z,39.38
2022-07-26T20:12:37.226Z,39.52
2022-07-26T20:15:04.481Z,39.53
2022-07-26T20:17:35.375Z,39.49
2022-07-26T20:20:03.551Z,39.76
2022-07-26T20:22:30.177Z,39.55
2022-07-26T20:24:56.815Z,39.75
2022-07-26T20:27:24.412Z,39.93
2022-07-26T20:29:51.478Z,39.80
2022-07-26T20:32:18.315Z,39.76
2022-07-26T20:34:45.001Z,40.11
2022-07-26T20:37:11.847Z,39.91
2022-07-26T20:39:38.905Z,40.45
2022-07-26T20:42:06.614Z,40.56
2022-07-26T20:44:35.857Z,40.46
2022-07-26T20:47:06.144Z,40.65
2022-07-26T20:49:32.793Z,40.35
2022-07-26T20:52:00.116Z,40.61
2022-07-26T20:54:26.686Z,40.69
2022-07-26T20:56:53.355Z,40.73
2022-07-26T20:59:20.096Z,40.71
2022-07-26T21:01:46.737Z,40.84
2022-07-26T21:04:13.343Z,41.09
2022-07-26T21:06:39.901Z,40.53
2022-07-26T21:09:08.918Z,40.37
2022-07-26T21:11:36.360Z,40.01
2022-07-26T21:14:03.008Z,40.65
2022-07-26T21:16:29.637Z,40.31
2022-07-26T21:18:56.373Z,40.66
2022-07-26T21:21:22.992Z,40.32
2022-07-26T21:23:49.784Z,40.43
2022-07-26T21:26:16.357Z,40.53
2022-07-26T21:28:42.927Z,40.58
2022-07-26T21:31:09.487Z,40.83
2022-07-26T21:33:36.101Z,41.33
2022-07-26T21:36:02.797Z,41.25
2022-07-26T21:38:31.895Z,41.25
2022-07-26T21:40:59.219Z,41.45
2022-07-26T21:43:26.035Z,41.21
2022-07-26T21:45:52.651Z,41.33
2022-07-26T21:48:19.254Z,41.16
2022-07-26T21:50:45.835Z,41.67
2022-07-26T21:53:13.484Z,42.12
2022-07-26T21:55:40.489Z,42.47
2022-07-26T21:58:07.065Z,42.46
2022-07-26T22:00:33.783Z,42.98
2022-07-26T22:03:00.292Z,43.07
2022-07-26T22:05:45.199Z,43.60
2022-07-26T22:08:14.172Z,43.57
2022-07-26T22:10:44.681Z,44.57
2022-07-26T22:13:11.913Z,44.48
2022-07-26T22:15:38.493Z,44.51
2022-07-26T22:18:05.615Z,44.67
2022-07-26T22:20:34.429Z,44.48
2022-07-26T22:23:06.435Z,44.13
2022-07-26T22:25:34.035Z,44.15
2022-07-26T22:28:01.516Z,44.10
2022-07-26T22:30:28.830Z,43.89
2022-07-26T22:32:56.939Z,44.36
2022-07-26T22:35:32.342Z,44.35
2022-07-26T22:38:05.975Z,44.37
2022-07-26T22:40:33.073Z,44.38
2022-07-26T22:43:00.102Z,43.97
2022-07-26T22:45:27.380Z,44.68
2022-07-26T22:47:55.892Z,44.96
2022-07-26T22:50:24.945Z,45.10
2022-07-26T22:52:52.003Z,45.78
2022-07-26T22:55:18.705Z,46.08
2022-07-26T22:57:46.410Z,47.11
2022-07-26T23:00:16.340Z,47.64
2022-07-26T23:02:43.369Z,48.25
2022-07-26T23:05:11.413Z,48.83
2022-07-26T23:07:38.578Z,49.33
2022-07-26T23:10:10.180Z,50.08
2022-07-26T23:12:37.109Z,50.00
2022-07-26T23:15:05.845Z,50.57
2022-07-26T23:17:32.653Z,50.96
2022-07-26T23:19:59.248Z,51.11
2022-07-26T23:22:25.858Z,51.41
2022-07-26T23:24:52.450Z,51.41
2022-07-26T23:27:20.310Z,51.79
2022-07-26T23:29:49.002Z,51.57
2022-07-26T23:32:16.394Z,51.73
2022-07-26T23:34:43.392Z,51.30
2022-07-26T23:37:10.085Z,51.49
2022-07-26T23:39:36.945Z,51.24
2022-07-26T23:42:03.647Z,51.21
2022-07-26T23:44:33.945Z,51.39
2022-07-26T23:47:00.643Z,51.57
2022-07-26T23:49:27.401Z,51.65
2022-07-26T23:51:54.178Z,51.58
2022-07-26T23:54:21.168Z,51.50
2022-07-26T23:56:47.726Z,51.45
2022-07-26T23:59:14.990Z,51.79
